x

Ilm2 - 5 Miles Se Of Wrightsville Beach, Nc (41038) Weather Station

3:00 - Fri 27th Mar 2015 All times are EDT. -4 hours from GMT.

  • Wind
    7mph, 11mph gusts
  • Sea Temp 57°f
  • Aire Temp 60°f
  • Sea Pressure 1006.9mb
  • Ilm2 - 5 Miles Se Of Wrightsville Beach, Nc
  • Ilm2 - 5 Miles Se Of Wrightsville Beach, Nc

More Historic Weather Station data

Upgrade to MSW Pro to gain access to the past 30 days of data for over 8000 Wavebouys and Weather Stations around the globe.

Join Pro

Comparision Forecast

View Surf forecast
   
vie 03/27 3:00 7 11 mph 1006.9mb 57f 60f
2:00 7 9 mph 1007.6mb 56f 60f
1:00 11 16 mph 1008.2mb 56f 61f
12:00 13 16 mph 1008.7mb 56f 61f
jue 03/26 11:00 9 13 mph 1009.4mb 56f 59f
10:00 11
mph
1010.4mb 56f 59f
9:00 13 16 mph 1010.2mb 56f 60f
8:00 11 16 mph 1010mb 56f 60f
7:00 9 13 mph 1009.9mb 56f 60f
6:00 11 13 mph 1010.5mb 56f 60f
5:00 16 18 mph 1011.2mb 56f 60f
4:00 16 18 mph 1011.9mb 56f 60f
3:00 18 20 mph 1012.3mb 56f 61f
2:00 16 20 mph 1012.3mb 56f 61f
1:00 18 22 mph 1013.3mb 56f 61f
12:00 13 18 mph 1014.3mb 56f 60f
11:00 13 18 mph 1013.9mb 56f 62f
10:00 20 25 mph 1014.3mb 56f 63f
8:00 13 16 mph 1015.3mb 56f 62f
7:00 11 16 mph 1016.3mb 56f 62f
6:00 11 16 mph 1016.3mb 56f 62f
5:00 13 18 mph 1016.8mb 56f 63f
4:00 16 18 mph 1017.5mb 56f 63f
3:00 11 13 mph 1018.7mb 56f 62f
2:00 9 13 mph 1019.7mb 56f 62f
1:00 7 9 mph 1020.3mb 56f 61f
12:00 9 11 mph 1020.7mb 56f 61f
mié 03/25 11:00 7 9 mph 1021.2mb 56f 60f
10:00 7 9 mph 1021.7mb 56f 60f
9:00 7 9 mph 1021.9mb 56f 60f
8:00 9 11 mph 1021.7mb 56f 61f
7:00 7 9 mph 1022mb 56f 60f
6:00 7 9 mph 1022.2mb 56f 60f
5:00 7 9 mph 1022.3mb 56f 59f
4:00 9 11 mph 1022.7mb 56f 59f
3:00 11 13 mph 1022.9mb 56f 59f
2:00 11 16 mph 1023.5mb 56f 58f
1:00 16 20 mph 1024mb 55f 58f
12:00 13 16 mph 1024.6mb 55f 57f
11:00 18 22 mph 1024.8mb 55f 56f
10:00 20 25 mph 1024.4mb 55f 55f
9:00 20 25 mph 1024.9mb 55f 55f
8:00 20 25 mph 1024.3mb 55f 55f
7:00 22 25 mph 1024.1mb 55f 54f
5:00 20 22 mph 1023.3mb 55f 54f
4:00 20 27 mph 1023.5mb 55f 53f
3:00 22 27 mph 1023.9mb 55f 53f
2:00 22 27 mph 1023.8mb 55f 53f
1:00 18 22 mph 1023.8mb 55f 54f
12:00 13 18 mph 1023.8mb 55f 57f
mar 03/24 11:00 13 16 mph 1023.8mb 55f 57f
10:00 13 16 mph 1023.7mb 55f 57f
9:00 13 18 mph 1023.4mb 55f 58f
8:00 13 18 mph 1023mb 55f 57f
7:00 11 16 mph 1022.8mb 56f 58f
6:00 9 11 mph 1022.4mb 56f 58f
5:00 11
mph
1022.1mb 56f 58f
4:00 11 13 mph 1022.1mb 56f 58f
3:00 11 13 mph 1022.3mb 56f 56f
2:00 9
mph
1022.7mb 55f 55f
1:00 13 16 mph 1023.1mb 55f 54f
12:00 13 18 mph 1023.4mb 55f 51f
11:00 13 16 mph 1023.5mb 55f 50f
10:00 18 20 mph 1023.1mb 55f 49f
9:00 16 18 mph 1022.9mb 55f 49f
8:00 18 20 mph 1022.1mb 55f 49f
6:00 16 18 mph 1021.1mb 55f 47f
5:00 18 22 mph 1020.8mb 55f 46f
4:00 20 25 mph 1020.2mb 55f 48f
3:00 20 25 mph 1020.3mb 55f 50f
2:00 20 22 mph 1020.3mb 55f 50f
1:00 20 25 mph 1020.2mb 55f 50f
12:00 22 25 mph 1020.3mb 55f 51f
lun 03/23 11:00 18 20 mph 1020mb 55f 51f
10:00 20 25 mph 1019.6mb 55f 53f
9:00 22 25 mph 1019.3mb 55f 53f
8:00 18 22 mph 1019.3mb 55f 53f
7:00 20 25 mph 1018.8mb 55f 53f
6:00 20 22 mph 1018.2mb 55f 53f
5:00 20 25 mph 1017.6mb 55f 53f
4:00 22 29 mph 1017.5mb 55f 54f
3:00 20 25 mph 1017.8mb 55f 54f
2:00 25 31 mph 1017.8mb 55f 53f
1:00 22 27 mph 1018mb 55f 53f
12:00 22 25 mph 1017.9mb 55f 53f
10:00 22 27 mph 1017.3mb 55f 52f
9:00 22 27 mph 1016.5mb 55f 53f